createdAt,value
2018-07-17T00:00:56.291Z,21.16
2018-07-17T00:03:56.264Z,21.27
2018-07-17T00:06:56.228Z,21.24
2018-07-17T00:09:56.209Z,21.16
2018-07-17T00:12:56.159Z,21.13
2018-07-17T00:15:56.131Z,21.09
2018-07-17T00:18:56.091Z,21.14
2018-07-17T00:21:56.070Z,21.16
2018-07-17T00:24:56.024Z,21.30
2018-07-17T00:27:56.062Z,21.20
2018-07-17T00:30:55.960Z,21.27
2018-07-17T00:33:55.970Z,21.21
2018-07-17T00:36:55.895Z,21.26
2018-07-17T00:39:55.873Z,21.21
2018-07-17T00:42:55.824Z,21.13
2018-07-17T00:45:55.801Z,21.09
2018-07-17T00:48:55.803Z,20.71
2018-07-17T00:51:55.743Z,20.56
2018-07-17T00:54:55.696Z,20.47
2018-07-17T00:57:56.326Z,20.35
2018-07-17T01:00:55.665Z,20.30
2018-07-17T01:03:55.607Z,20.21
2018-07-17T01:06:55.609Z,20.15
2018-07-17T01:09:55.545Z,20.09
2018-07-17T01:12:55.500Z,20.03
2018-07-17T01:15:55.488Z,19.86
2018-07-17T01:18:55.441Z,19.95
2018-07-17T01:21:55.423Z,19.97
2018-07-17T01:24:55.357Z,20.10
2018-07-17T01:27:55.408Z,20.20
2018-07-17T01:30:55.293Z,20.18
2018-07-17T01:33:55.278Z,20.21
2018-07-17T01:36:55.231Z,20.16
2018-07-17T01:39:55.211Z,20.03
2018-07-17T01:42:55.233Z,20.09
2018-07-17T01:45:55.152Z,20.18
2018-07-17T01:48:55.103Z,20.18
2018-07-17T01:51:55.075Z,20.50
2018-07-17T01:54:55.035Z,20.68
2018-07-17T01:57:55.012Z,20.89
2018-07-17T02:00:54.963Z,20.86
2018-07-17T02:03:54.971Z,20.80
2018-07-17T02:06:54.957Z,20.79
2018-07-17T02:09:54.919Z,20.71
2018-07-17T02:12:54.829Z,20.65
2018-07-17T02:15:54.826Z,20.58
2018-07-17T02:18:54.852Z,20.58
2018-07-17T02:21:54.739Z,20.42
2018-07-17T02:24:54.734Z,20.38
2018-07-17T02:27:54.693Z,20.18
2018-07-17T02:30:54.644Z,20.16
2018-07-17T02:33:54.626Z,20.15
2018-07-17T02:36:54.590Z,20.16
2018-07-17T02:39:54.540Z,20.08
2018-07-17T02:42:54.501Z,20.09
2018-07-17T02:45:54.478Z,19.98
2018-07-17T02:48:54.439Z,19.88
2018-07-17T02:51:54.409Z,19.78
2018-07-17T02:54:54.362Z,19.78
2018-07-17T02:57:54.343Z,19.84
2018-07-17T03:00:54.302Z,19.72
2018-07-17T03:03:54.278Z,19.60
2018-07-17T03:06:54.277Z,19.48
2018-07-17T03:09:54.206Z,19.40
2018-07-17T03:12:54.164Z,19.46
2018-07-17T03:15:54.151Z,19.40
2018-07-17T03:18:54.089Z,19.35
2018-07-17T03:21:54.101Z,19.23
2018-07-17T03:24:54.032Z,19.28
2018-07-17T03:27:54.011Z,19.31
2018-07-17T03:30:53.961Z,19.39
2018-07-17T03:33:53.966Z,19.51
2018-07-17T03:36:53.920Z,19.53
2018-07-17T03:39:53.884Z,19.65
2018-07-17T03:42:53.831Z,19.72
2018-07-17T03:45:53.806Z,19.72
2018-07-17T03:48:53.768Z,19.79
2018-07-17T03:51:53.739Z,19.88
2018-07-17T03:54:53.696Z,19.98
2018-07-17T03:57:53.672Z,20.09
2018-07-17T04:00:53.630Z,20.20
2018-07-17T04:03:53.608Z,20.39
2018-07-17T04:06:53.556Z,20.58
2018-07-17T04:09:53.536Z,20.68
2018-07-17T04:12:53.518Z,20.65
2018-07-17T04:15:53.476Z,20.98
2018-07-17T04:18:53.431Z,20.84
2018-07-17T04:21:53.403Z,21.39
2018-07-17T04:24:53.392Z,21.88
2018-07-17T04:27:53.400Z,22.06
2018-07-17T04:30:53.308Z,22.39
2018-07-17T04:33:53.283Z,22.54
2018-07-17T04:36:53.267Z,22.67
2018-07-17T04:39:53.212Z,22.75
2018-07-17T04:42:53.171Z,22.92
2018-07-17T04:45:53.152Z,22.99
2018-07-17T04:48:53.106Z,23.22
2018-07-17T04:51:53.083Z,23.09
2018-07-17T04:54:53.031Z,22.07
2018-07-17T04:57:53.025Z,21.72
2018-07-17T05:00:52.961Z,21.67
2018-07-17T05:03:52.943Z,21.63
2018-07-17T05:06:52.911Z,21.56
2018-07-17T05:09:52.884Z,21.57
2018-07-17T05:12:52.920Z,22.29
2018-07-17T05:15:52.816Z,23.29
2018-07-17T05:18:52.766Z,22.89
2018-07-17T05:21:52.756Z,22.19
2018-07-17T05:24:52.699Z,22.04
2018-07-17T05:27:52.684Z,21.67
2018-07-17T05:30:52.627Z,21.69
2018-07-17T05:33:52.614Z,21.64
2018-07-17T05:36:52.576Z,21.81
2018-07-17T05:39:52.549Z,21.82
2018-07-17T05:42:52.506Z,21.74
2018-07-17T05:45:52.492Z,21.57
2018-07-17T05:48:52.446Z,21.71
2018-07-17T05:51:52.430Z,21.69
2018-07-17T05:54:52.375Z,21.57
2018-07-17T05:57:52.445Z,21.41
2018-07-17T06:00:52.309Z,21.41
2018-07-17T06:03:52.287Z,21.34
2018-07-17T06:06:52.299Z,21.38
2018-07-17T06:09:52.238Z,21.48
2018-07-17T06:12:52.174Z,21.67
2018-07-17T06:15:52.161Z,21.82
2018-07-17T06:18:52.122Z,21.85
2018-07-17T06:21:52.122Z,22.32
2018-07-17T06:24:52.050Z,22.35
2018-07-17T06:27:52.030Z,23.04
2018-07-17T06:30:51.979Z,23.45
2018-07-17T06:33:51.963Z,24.98
2018-07-17T06:36:51.909Z,25.64
2018-07-17T06:39:51.915Z,26.28
2018-07-17T06:42:51.844Z,25.69
2018-07-17T06:45:51.886Z,24.80
2018-07-17T06:48:51.786Z,25.98
2018-07-17T06:51:51.789Z,26.36
2018-07-17T06:54:51.725Z,27.31
2018-07-17T06:57:51.709Z,27.58
2018-07-17T07:00:51.680Z,27.01
2018-07-17T07:03:51.639Z,27.46
2018-07-17T07:06:51.594Z,27.91
2018-07-17T07:09:51.594Z,28.62
2018-07-17T07:12:51.544Z,28.33
2018-07-17T07:15:51.513Z,27.50
2018-07-17T07:18:51.473Z,27.84
2018-07-17T07:21:51.467Z,27.29
2018-07-17T07:24:51.423Z,27.70
2018-07-17T07:27:51.527Z,27.77
2018-07-17T07:30:51.421Z,28.38
2018-07-17T07:33:51.335Z,28.88
2018-07-17T07:36:51.297Z,29.38
2018-07-17T07:39:51.272Z,29.26
2018-07-17T07:42:51.342Z,29.53
2018-07-17T07:45:51.222Z,29.79
2018-07-17T07:48:51.165Z,27.91
2018-07-17T07:51:51.161Z,28.56
2018-07-17T07:54:51.130Z,28.66
2018-07-17T07:57:51.205Z,29.19
2018-07-17T08:00:51.037Z,29.08
2018-07-17T08:03:51.057Z,30.21
2018-07-17T08:06:50.979Z,29.78
2018-07-17T08:09:50.978Z,29.79
2018-07-17T08:12:50.924Z,29.52
2018-07-17T08:15:50.931Z,30.46
2018-07-17T08:18:50.869Z,29.87
2018-07-17T08:21:50.876Z,29.97
2018-07-17T08:24:50.801Z,30.34
2018-07-17T08:27:50.809Z,30.24
2018-07-17T08:30:50.752Z,30.68
2018-07-17T08:33:50.742Z,30.19
2018-07-17T08:36:50.685Z,30.87
2018-07-17T08:39:50.678Z,31.42
2018-07-17T08:42:50.646Z,31.20
2018-07-17T08:45:50.621Z,30.21
2018-07-17T08:48:50.603Z,31.55
2018-07-17T08:51:50.555Z,31.68
2018-07-17T08:54:50.549Z,31.91
2018-07-17T08:57:50.521Z,32.21
2018-07-17T09:00:50.461Z,32.11
2018-07-17T09:03:51.316Z,32.17
2018-07-17T09:06:50.415Z,32.93
2018-07-17T09:09:50.400Z,32.93
2018-07-17T09:12:50.354Z,32.55
2018-07-17T09:15:50.344Z,30.81
2018-07-17T09:18:50.480Z,31.35
2018-07-17T09:21:50.319Z,31.58
2018-07-17T09:24:50.296Z,31.21
2018-07-17T09:27:50.247Z,33.07
2018-07-17T09:30:50.184Z,31.64
2018-07-17T09:33:50.284Z,30.56
2018-07-17T09:36:50.194Z,31.36
2018-07-17T09:39:50.165Z,31.31
2018-07-17T09:42:50.087Z,32.74
2018-07-17T09:45:50.077Z,32.64
2018-07-17T09:48:50.031Z,33.90
2018-07-17T09:51:50.024Z,33.42
2018-07-17T09:54:49.965Z,32.47
2018-07-17T09:57:49.946Z,33.31
2018-07-17T10:00:49.920Z,32.27
2018-07-17T10:03:49.915Z,32.66
2018-07-17T10:06:49.864Z,32.54
2018-07-17T10:09:49.847Z,31.02
2018-07-17T10:12:49.812Z,32.22
2018-07-17T10:15:49.803Z,32.42
2018-07-17T10:18:49.766Z,33.03
2018-07-17T10:21:49.742Z,32.93
2018-07-17T10:24:49.712Z,32.79
2018-07-17T10:27:49.696Z,32.93
2018-07-17T10:30:49.654Z,33.74
2018-07-17T10:33:49.631Z,33.23
2018-07-17T10:36:49.605Z,33.86
2018-07-17T10:39:49.594Z,33.37
2018-07-17T10:42:49.559Z,32.99
2018-07-17T10:45:49.536Z,32.48
2018-07-17T10:48:49.499Z,33.22
2018-07-17T10:51:49.484Z,32.77
2018-07-17T10:54:49.457Z,33.39
2018-07-17T10:57:49.443Z,33.71
2018-07-17T11:00:49.407Z,33.60
2018-07-17T11:03:50.334Z,32.98
2018-07-17T11:06:49.351Z,33.30
2018-07-17T11:09:49.319Z,33.37
2018-07-17T11:12:49.279Z,34.16
2018-07-17T11:15:49.267Z,34.50
2018-07-17T11:18:49.222Z,34.11
2018-07-17T11:21:49.212Z,35.17
2018-07-17T11:24:49.174Z,33.65
2018-07-17T11:27:49.162Z,34.16
2018-07-17T11:30:49.119Z,34.09
2018-07-17T11:33:49.134Z,34.07
2018-07-17T11:36:49.082Z,33.79
2018-07-17T11:39:49.065Z,34.04
2018-07-17T11:42:49.028Z,34.22
2018-07-17T11:45:49.032Z,33.67
2018-07-17T11:48:48.976Z,33.45
2018-07-17T11:51:49.014Z,33.97
2018-07-17T11:54:48.941Z,33.51
2018-07-17T11:57:48.913Z,33.46
2018-07-17T12:00:48.901Z,33.36
2018-07-17T12:03:48.872Z,32.17
2018-07-17T12:06:48.821Z,32.13
2018-07-17T12:09:48.841Z,33.41
2018-07-17T12:12:50.427Z,33.49
2018-07-17T12:15:48.769Z,34.08
2018-07-17T12:18:48.730Z,33.52
2018-07-17T12:21:48.702Z,33.17
2018-07-17T12:24:48.668Z,33.36
2018-07-17T12:27:48.745Z,32.18
2018-07-17T12:30:48.667Z,30.78
2018-07-17T12:33:48.612Z,33.42
2018-07-17T12:36:48.581Z,34.07
2018-07-17T12:39:48.551Z,34.34
2018-07-17T12:42:48.524Z,32.70
2018-07-17T12:45:48.529Z,31.76
2018-07-17T12:48:48.463Z,34.56
2018-07-17T12:51:48.462Z,33.31
2018-07-17T12:54:48.403Z,33.41
2018-07-17T12:57:48.399Z,33.34
2018-07-17T13:00:48.352Z,33.43
2018-07-17T13:03:48.380Z,32.36
2018-07-17T13:06:48.317Z,31.01
2018-07-17T13:09:48.315Z,32.11
2018-07-17T13:12:48.249Z,31.06
2018-07-17T13:15:48.226Z,30.19
2018-07-17T13:18:48.191Z,30.43
2018-07-17T13:21:48.223Z,33.04
2018-07-17T13:24:48.140Z,34.31
2018-07-17T13:27:48.145Z,34.09
2018-07-17T13:30:48.091Z,33.68
2018-07-17T13:33:48.067Z,33.53
2018-07-17T13:36:48.025Z,34.16
2018-07-17T13:39:48.085Z,32.15
2018-07-17T13:42:47.963Z,31.55
2018-07-17T13:45:47.977Z,31.05
2018-07-17T13:48:47.909Z,30.56
2018-07-17T13:51:47.899Z,31.24
2018-07-17T13:54:47.843Z,32.92
2018-07-17T13:57:47.873Z,34.04
2018-07-17T14:00:47.813Z,33.37
2018-07-17T14:03:47.847Z,32.15
2018-07-17T14:06:47.848Z,34.08
2018-07-17T14:09:47.735Z,32.71
2018-07-17T14:12:47.687Z,31.48
2018-07-17T14:15:47.706Z,32.25
2018-07-17T14:18:47.646Z,33.36
2018-07-17T14:21:47.622Z,33.01
2018-07-17T14:24:47.598Z,33.55
2018-07-17T14:27:47.611Z,33.15
2018-07-17T14:30:47.537Z,31.43
2018-07-17T14:33:47.689Z,29.71
2018-07-17T14:36:47.476Z,29.57
2018-07-17T14:39:47.601Z,32.58
2018-07-17T14:42:47.481Z,31.93
2018-07-17T14:45:47.571Z,30.52
2018-07-17T14:48:47.397Z,31.11
2018-07-17T14:51:47.372Z,30.96
2018-07-17T14:54:47.306Z,30.53
2018-07-17T14:57:47.303Z,29.94
2018-07-17T15:00:47.246Z,30.21
2018-07-17T15:03:47.245Z,31.95
2018-07-17T15:06:47.204Z,31.79
2018-07-17T15:09:47.263Z,30.46
2018-07-17T15:12:47.133Z,31.46
2018-07-17T15:15:47.130Z,32.44
2018-07-17T15:18:47.086Z,32.02
2018-07-17T15:21:47.073Z,30.72
2018-07-17T15:24:47.025Z,29.92
2018-07-17T15:27:47.058Z,30.05
2018-07-17T15:30:46.960Z,31.92
2018-07-17T15:33:46.951Z,30.50
2018-07-17T15:36:46.907Z,31.01
2018-07-17T15:39:46.916Z,31.95
2018-07-17T15:42:46.844Z,31.85
2018-07-17T15:45:46.916Z,32.33
2018-07-17T15:48:46.830Z,31.72
2018-07-17T15:51:46.788Z,30.80
2018-07-17T15:54:46.743Z,29.78
2018-07-17T15:57:46.723Z,29.82
2018-07-17T16:00:46.678Z,30.76
2018-07-17T16:03:46.669Z,29.66
2018-07-17T16:06:46.620Z,29.08
2018-07-17T16:09:46.616Z,29.03
2018-07-17T16:12:46.557Z,28.69
2018-07-17T16:15:46.546Z,28.28
2018-07-17T16:18:46.489Z,28.46
2018-07-17T16:21:46.464Z,28.40
2018-07-17T16:24:46.420Z,28.62
2018-07-17T16:27:46.410Z,29.25
2018-07-17T16:30:46.380Z,28.70
2018-07-17T16:33:46.340Z,28.26
2018-07-17T16:36:46.355Z,28.23
2018-07-17T16:39:46.289Z,27.92
2018-07-17T16:42:46.236Z,28.09
2018-07-17T16:45:46.214Z,28.06
2018-07-17T16:48:46.193Z,28.68
2018-07-17T16:51:46.162Z,28.33
2018-07-17T16:54:46.099Z,28.31
2018-07-17T16:57:46.098Z,29.43
2018-07-17T17:00:46.066Z,29.87
2018-07-17T17:03:46.037Z,30.49
2018-07-17T17:06:45.982Z,29.59
2018-07-17T17:09:45.963Z,29.74
2018-07-17T17:12:45.921Z,30.18
2018-07-17T17:15:45.899Z,29.71
2018-07-17T17:18:45.857Z,31.04
2018-07-17T17:21:45.863Z,31.23
2018-07-17T17:24:45.792Z,30.53
2018-07-17T17:27:45.791Z,30.75
2018-07-17T17:30:45.731Z,30.57
2018-07-17T17:33:47.327Z,29.96
2018-07-17T17:36:45.747Z,29.59
2018-07-17T17:39:45.703Z,30.00
2018-07-17T17:42:45.604Z,29.63
2018-07-17T17:45:45.623Z,29.10
2018-07-17T17:48:45.546Z,28.06
2018-07-17T17:51:45.537Z,28.68
2018-07-17T17:54:45.475Z,28.73
2018-07-17T17:57:45.492Z,27.50
2018-07-17T18:00:45.419Z,27.67
2018-07-17T18:03:45.467Z,27.67
2018-07-17T18:06:45.400Z,26.84
2018-07-17T18:09:45.357Z,26.76
2018-07-17T18:12:45.306Z,26.87
2018-07-17T18:15:45.265Z,27.24
2018-07-17T18:18:45.275Z,26.43
2018-07-17T18:21:45.201Z,25.59
2018-07-17T18:24:45.150Z,25.07
2018-07-17T18:27:45.130Z,24.87
2018-07-17T18:30:45.128Z,24.52
2018-07-17T18:33:45.080Z,24.47
2018-07-17T18:36:45.025Z,24.44
2018-07-17T18:39:44.999Z,24.32
2018-07-17T18:42:44.984Z,24.10
2018-07-17T18:45:44.954Z,23.87
2018-07-17T18:48:44.903Z,23.75
2018-07-17T18:51:44.857Z,23.47
2018-07-17T18:54:44.913Z,23.42
2018-07-17T18:57:44.809Z,23.29
2018-07-17T19:00:44.766Z,23.35
2018-07-17T19:03:44.730Z,23.07
2018-07-17T19:06:44.704Z,23.08
2018-07-17T19:09:44.661Z,22.82
2018-07-17T19:12:44.616Z,22.71
2018-07-17T19:15:44.611Z,22.56
2018-07-17T19:18:44.548Z,22.38
2018-07-17T19:21:44.557Z,22.39
2018-07-17T19:24:44.501Z,22.23
2018-07-17T19:27:44.474Z,22.14
2018-07-17T19:30:44.421Z,21.95
2018-07-17T19:33:44.395Z,21.71
2018-07-17T19:36:44.351Z,21.63
2018-07-17T19:39:44.409Z,21.59
2018-07-17T19:42:44.292Z,21.45
2018-07-17T19:45:44.277Z,21.34
2018-07-17T19:48:44.231Z,21.26
2018-07-17T19:51:44.211Z,21.11
2018-07-17T19:54:44.143Z,21.01
2018-07-17T19:57:44.146Z,20.93
2018-07-17T20:00:44.084Z,21.06
2018-07-17T20:03:44.087Z,21.01
2018-07-17T20:06:44.033Z,20.96
2018-07-17T20:09:44.020Z,20.74
2018-07-17T20:12:43.949Z,20.58
2018-07-17T20:15:43.938Z,20.47
2018-07-17T20:18:43.873Z,20.28
2018-07-17T20:21:43.884Z,20.20
2018-07-17T20:24:43.823Z,20.09
2018-07-17T20:27:43.805Z,20.06
2018-07-17T20:30:43.774Z,19.98
2018-07-17T20:33:43.789Z,19.86
2018-07-17T20:36:43.681Z,19.80
2018-07-17T20:39:43.671Z,19.79
2018-07-17T20:42:43.613Z,19.68
2018-07-17T20:45:43.583Z,19.58
2018-07-17T20:48:43.566Z,19.47
2018-07-17T20:51:43.622Z,19.43
2018-07-17T20:54:43.475Z,19.28
2018-07-17T20:57:43.463Z,19.28
2018-07-17T21:00:43.398Z,19.05
2018-07-17T21:03:43.408Z,19.01
2018-07-17T21:06:43.368Z,18.92
2018-07-17T21:09:43.326Z,18.94
2018-07-17T21:12:43.265Z,18.72
2018-07-17T21:15:43.273Z,18.77
2018-07-17T21:18:43.283Z,18.73
2018-07-17T21:21:43.199Z,18.42
2018-07-17T21:24:43.131Z,18.36
2018-07-17T21:27:43.155Z,18.39
2018-07-17T21:30:43.073Z,18.49
2018-07-17T21:33:43.059Z,18.50
2018-07-17T21:36:42.995Z,18.55
2018-07-17T21:39:43.007Z,18.46
2018-07-17T21:42:42.954Z,18.44
2018-07-17T21:45:43.018Z,18.37
2018-07-17T21:48:42.867Z,18.28
2018-07-17T21:51:42.855Z,18.10
2018-07-17T21:54:42.796Z,17.91
2018-07-17T21:57:42.871Z,17.74
2018-07-17T22:00:42.722Z,17.63
2018-07-17T22:03:42.701Z,17.47
2018-07-17T22:06:42.669Z,17.28
2018-07-17T22:09:42.636Z,17.14
2018-07-17T22:12:42.601Z,17.23
2018-07-17T22:15:42.572Z,17.23
2018-07-17T22:18:42.552Z,17.59
2018-07-17T22:21:42.504Z,17.55
2018-07-17T22:24:42.453Z,17.69
2018-07-17T22:27:42.446Z,17.70
2018-07-17T22:30:42.383Z,17.81
2018-07-17T22:33:42.362Z,17.88
2018-07-17T22:36:42.345Z,17.99
2018-07-17T22:39:42.309Z,18.03
2018-07-17T22:42:42.256Z,17.85
2018-07-17T22:45:42.236Z,17.74
2018-07-17T22:48:42.203Z,17.55
2018-07-17T22:51:42.165Z,17.35
2018-07-17T22:54:42.115Z,17.06
2018-07-17T22:57:42.121Z,16.80
2018-07-17T23:00:42.055Z,16.62
2018-07-17T23:03:42.033Z,16.49
2018-07-17T23:06:42.048Z,16.41
2018-07-17T23:09:41.962Z,16.41
2018-07-17T23:12:41.918Z,16.26
2018-07-17T23:15:41.911Z,16.06
2018-07-17T23:18:41.847Z,15.79
2018-07-17T23:21:41.833Z,15.61
2018-07-17T23:24:41.794Z,15.63
2018-07-17T23:27:41.771Z,15.92
2018-07-17T23:30:41.716Z,15.88
2018-07-17T23:33:41.711Z,15.82
2018-07-17T23:36:41.648Z,15.75
2018-07-17T23:39:41.635Z,15.70
2018-07-17T23:42:41.592Z,15.61
2018-07-17T23:45:41.565Z,15.59
2018-07-17T23:48:41.528Z,15.52
2018-07-17T23:51:41.503Z,15.42
2018-07-17T23:54:41.444Z,15.19
2018-07-17T23:57:41.516Z,15.21
